Tiempo atmosférico en la estación meteorológica de Abla, Almería (885 m.)

Fecha
DESCASC
Temp. máxima en grados centígrados (hora)
DESCASC
Temp. mínima en grados centígrados (hora)
DESCASC
Temp. media en grados centígrados
DESCASC
Racha de viento máxima en m/sg (hora)
DESCASC
Velocidad máxima media en intervalos de 10 minutos(hora)
DESCASC
Precipitaciones diarias en mm
DESCASC
Precipitaciones de 00:00 a 06:00 en mm
DESCASC
Precipitaciones de 06:00 a 12:00 en mm
DESCASC
Precipitaciones de 12:00 a 18:00 en mm
DESCASC
Precipitaciones de 18:00 a 24:00 en mm
DESCASC
17-08-2017 31.5 (15:00) 19.7 (07:10) 25.6 11.11 (13:00) 5.83 (14:30) 0 0 0 0 0
16-08-2017 34.6 (12:00) 21.8 (06:00) 28.2 10.28 (16:50) 5.56 (16:50) 0 0 0 0 0
15-08-2017 32.8 (13:20) 20 (00:00) 26.4 9.72 (15:30) 5 (16:10) 0 0 0 0 0
14-08-2017 30.6 (15:10) 17.2 (06:40) 23.9 12.22 (15:40) 6.39 (15:40) 0 0 0 0 0
13-08-2017 29.7 (16:00) 16.2 (00:00) 23 10.83 (16:00) 5 (19:00) 0 0 0 0 0
12-08-2017 30 (15:50) 16 (00:00) 23 11.11 (15:40) 4.72 (15:30) 0 0 0 0 0
11-08-2017 28.4 (15:10) 16.8 (00:00) 22.6 9.17 (15:50) 4.44 (14:10) 0 0 0 0 0
10-08-2017 26.7 (15:10) 18 (00:00) 22.4 10 (11:50) 5 (13:40) 0 0 0 0 0
09-08-2017 31.4 (14:40) 18.1 (00:00) 24.8 9.17 (15:40) 4.17 (17:20) 0 0 0 0 0
08-08-2017 39 (14:30) 22.4 (00:00) 30.7 7.5 (18:30) 3.06 (18:30) 0 0 0 0 0
07-08-2017 33.5 (16:10) 20.7 (00:00) 27.1 14.17 (16:00) 5.83 (18:20) 1.3 0 0 0.3 1
06-08-2017 34.8 (11:40) 22.8 (00:00) 28.8 10.56 (14:00) 5 (15:50) 0 0 0 0 0
05-08-2017 35.1 (15:30) 23.3 (00:00) 29.2 11.67 (16:50) 5.83 (13:20) 0 0 0 0 0
04-08-2017 36.5 (15:50) 23.6 (00:00) 30.1 10.83 (16:40) 5.28 (17:10) 0 0 0 0 0
03-08-2017 35.6 (15:20) 22.7 (00:00) 29.1 8.06 (17:40) 4.17 (18:20) 0 0 0 0 0
02-08-2017 32.8 (16:00) 20.9 (00:00) 26.8 10.28 (12:50) 5.83 (13:00) 0 0 0 0 0
01-08-2017 33.9 (14:50) 21.9 (00:00) 27.9 13.61 (21:10) 5.28 (21:40) 0 0 0 0 0
31-07-2017 34.3 (17:30) 21.8 (00:00) 28 11.39 (15:40) 6.39 (19:00) 0 0 0 0 0
30-07-2017 36.3 (16:30) 24.9 (00:00) 30.6 10.28 (12:20) 5.56 (13:00) 0 0 0 0 0
29-07-2017 34.7 (13:40) 22.9 (00:00) 28.8 10.56 (16:20) 5.28 (16:20) 0 0 0 0 0
28-07-2017 36.6 (12:30) 23.8 (00:00) 30.2 10.83 (17:30) 5.28 (18:00) 0 0 0 0 0
27-07-2017 32.6 (14:10) 19.3 (00:00) 25.9 10.56 (16:50) 4.72 (18:20) 0 0 0 0 0
26-07-2017 31.2 (14:20) 18.7 (00:00) 25 10.28 (17:10) 4.72 (17:30) 0 0 0 0 0
25-07-2017 32.6 (10:50) 20.9 (00:00) 26.7 10.83 (17:30) 5.28 (17:30) 0 0 0 0 0
24-07-2017 35.9 (14:10) 21.6 (00:00) 28.8 8.89 (15:00) 4.17 (14:40) 0 0 0 0 0
23-07-2017 33.7 (16:00) 20.9 (00:00) 27.3 8.61 (15:50) 3.89 (14:50) 0 0 0 0 0
22-07-2017 32.4 (17:30) 19.3 (00:00) 25.9 11.11 (14:50) 5.28 (14:00) 0 0 0 0 0
21-07-2017 32.2 (15:30) 19 (00:00) 25.6 8.89 (16:50) 4.44 (19:10) 0 0 0 0 0
20-07-2017 33.6 (14:50) 20.3 (00:00) 26.9 10.28 (17:10) 5 (18:00) 0 0 0 0 0
19-07-2017 37.1 (19:10) 21.5 (00:00) 29.3 9.72 (12:50) 4.17 (12:50) 0 0 0 0 0

Gráficas

Temp. máximas Temp. mínimas Temp. medias Precipitaciones Rachas de viento máximas Velocidades máximas media en intervalos de 10 minutos

Datos horarios

Fecha y hora oficial Temperatura (ºC) Velocidad del viento (km/h) Dirección del viento Racha (km/h) Dirección de racha Precipitación (mm) Presión (hPa) Tendencia (hPa) Humedad (%)
2017-08-17 23:00:00 25.1 7 Nordeste 22 Este 0 -- -- 69
2017-08-17 22:00:00 25.9 9 Este 26 Nordeste 0 -- -- 64
2017-08-17 21:00:00 27.5 12 Este 27 Este 0 -- -- 54
2017-08-17 20:00:00 28.7 14 Este 31 Este 0 -- -- 49
2017-08-17 19:00:00 30.1 16 Nordeste 36 Nordeste 0 -- -- 46
2017-08-17 18:00:00 30.6 17 Nordeste 37 Nordeste 0 -- -- 46
2017-08-17 17:00:00 30.5 19 Este 37 Este 0 -- -- 46
2017-08-17 16:00:00 30.7 19 Nordeste 37 Nordeste 0 -- -- 46
2017-08-17 15:00:00 30.9 17 Nordeste 39 Este 0 -- -- 46
2017-08-17 14:00:00 30.6 15 Este 39 Este 0 -- -- 49
2017-08-17 13:00:00 28.6 20 Este 40 Este 0 -- -- 52
2017-08-17 12:00:00 28.2 13 Este 34 Este 0 -- -- 53
2017-08-17 11:00:00 27.1 10 Este 19 Este 0 -- -- 53
2017-08-17 10:00:00 26.2 5 Nordeste 14 Este 0 -- -- 52
2017-08-17 09:00:00 22.8 0 Calma 6 Noroeste 0 -- -- 47
2017-08-17 08:00:00 21.6 0 Calma 8 Noroeste 0 -- -- 47
2017-08-17 07:00:00 20.9 0 Calma 5 Oeste 0 -- -- 47
2017-08-17 06:00:00 21.8 0 Calma 6 Oeste 0 -- -- 46
2017-08-17 05:00:00 21.4 0 Calma 9 Noroeste 0 -- -- 48
2017-08-17 04:00:00 22.8 0 Calma 9 Noroeste 0 -- -- 46
2017-08-17 03:00:00 24.5 0 Calma 7 Noroeste 0 -- -- 43
2017-08-17 02:00:00 23.7 0 Calma 8 Noroeste 0 -- -- 53
2017-08-17 01:00:00 24 2 Noroeste 9 Norte 0 -- -- 57
2017-08-17 00:00:00 25.1 2 Noroeste 8 Noroeste 0 -- -- 59
2017-08-16 23:00:00 26.2 0 Calma 6 Noroeste 0 -- -- 55
2017-08-16 22:00:00 26.5 4 Nordeste 17 Nordeste 0 -- -- 58
2017-08-16 21:00:00 27.2 6 Nordeste 25 Este 0 -- -- 55
2017-08-16 20:00:00 28.6 14 Nordeste 28 Este 0 -- -- 47
2017-08-16 19:00:00 30.7 13 Este 33 Nordeste 0 -- -- 41
2017-08-16 18:00:00 31.1 15 Nordeste 37 Nordeste 0 -- -- 43
2017-08-16 17:00:00 30.7 16 Nordeste 37 Este 0 -- -- 45
2017-08-16 16:00:00 31.2 18 Nordeste 36 Este 0 -- -- 43
2017-08-16 15:00:00 30.8 16 Nordeste 34 Este 0 -- -- 43
2017-08-16 14:00:00 30.3 17 Nordeste 36 Este 0 -- -- 48
2017-08-16 13:00:00 30 15 Nordeste 30 Nordeste 0 -- -- 47
2017-08-16 12:00:00 34.2 4 Norte 12 Nordeste 0 -- -- 32
2017-08-16 11:00:00 32 4 Norte 10 Noroeste 0 -- -- 36
2017-08-16 10:00:00 28.9 3 Noroeste 10 Norte 0 -- -- 43
2017-08-16 09:00:00 26.5 4 Noroeste 14 Sudoeste 0 -- -- 50
2017-08-16 08:00:00 23.5 3 Noroeste 14 Sudoeste 0 -- -- 59
2017-08-16 07:00:00 23.3 3 Noroeste 15 Oeste 0 -- -- 61
2017-08-16 06:00:00 22 8 Noroeste 12 Noroeste 0 -- -- 77
2017-08-16 05:00:00 22.4 0 Calma 6 Oeste 0 -- -- 79
2017-08-16 04:00:00 22.8 0 Calma 3 Noroeste 0 -- -- 75
2017-08-16 03:00:00 23 0 Calma 6 Este 0 -- -- 81
2017-08-16 02:00:00 23.7 0 Calma 5 Norte 0 -- -- 76
2017-08-16 01:00:00 23.7 0 Calma 7 Noroeste 0 -- -- 81
2017-08-16 00:00:00 23.9 2 Nordeste 8 Este 0 -- -- 80
2017-08-15 23:00:00 24.4 4 Nordeste 14 Norte 0 -- -- 77
2017-08-15 22:00:00 25.1 6 Nordeste 22 Este 0 -- -- 72
2017-08-15 21:00:00 27.2 10 Este 26 Este 0 -- -- 59
2017-08-15 20:00:00 28.7 12 Nordeste 28 Nordeste 0 -- -- 52
2017-08-15 19:00:00 28.5 15 Este 35 Este 0 -- -- 52
2017-08-15 18:00:00 30.2 15 Nordeste 31 Este 0 -- -- 48
2017-08-15 17:00:00 30 16 Nordeste 32 Este 0 -- -- 47
2017-08-15 16:00:00 30.2 17 Este 35 Este 0 -- -- 45
2017-08-15 15:00:00 30.8 15 Nordeste 32 Este 0 -- -- 40
2017-08-15 14:00:00 31.6 13 Nordeste 26 Este 0 -- -- 37
2017-08-15 13:00:00 32.1 4 Nordeste 15 Este 0 -- -- 35
2017-08-15 12:00:00 30.2 4 Nordeste 14 Nordeste 0 -- -- 36
2017-08-15 11:00:00 28.2 3 Norte 12 Noroeste 0 -- -- 44
2017-08-15 10:00:00 24.8 2 Nordeste 8 Nordeste 0 -- -- 53
2017-08-15 09:00:00 22.6 3 Nordeste 8 Noroeste 0 -- -- 60
2017-08-15 08:00:00 20.7 0 Calma 12 Oeste 0 -- -- 63
2017-08-15 07:00:00 20.9 3 Noroeste 10 Oeste 0 -- -- 60
2017-08-15 06:00:00 21 5 Noroeste 9 Noroeste 0 -- -- 65
2017-08-15 05:00:00 21.2 2 Noroeste 8 Noroeste 0 -- -- 65
2017-08-15 04:00:00 21.5 0 Calma 10 Noroeste 0 -- -- 68
2017-08-15 03:00:00 21.4 2 Este 9 Norte 0 -- -- 72
2017-08-15 02:00:00 21.5 5 Nordeste 26 Nordeste 0 -- -- 74
2017-08-15 01:00:00 22.2 11 Nordeste 23 Este 0 -- -- 70
2017-08-15 00:00:00 22.8 2 Nordeste 14 Este 0 -- -- 68
2017-08-14 23:00:00 23.4 4 Nordeste 15 Nordeste 0 -- -- 65
2017-08-14 22:00:00 24 6 Nordeste 22 Este 0 -- -- 61
2017-08-14 21:00:00 25.9 7 Este 20 Nordeste 0 -- -- 50
2017-08-14 20:00:00 27.2 12 Nordeste 28 Este 0 -- -- 43
2017-08-14 19:00:00 27.8 14 Nordeste 36 Este 0 -- -- 39
2017-08-14 18:00:00 28.9 18 Este 40 Este 0 -- -- 36
2017-08-14 17:00:00 30.3 18 Nordeste 44 Nordeste 0 -- -- 31
2017-08-14 16:00:00 29.9 22 Nordeste 44 Nordeste 0 -- -- 30
2017-08-14 15:00:00 29.9 20 Nordeste 40 Este 0 -- -- 28
2017-08-14 14:00:00 30.1 18 Nordeste 38 Nordeste 0 -- -- 24
2017-08-14 13:00:00 28.2 16 Nordeste 39 Este 0 -- -- 25
2017-08-14 12:00:00 26.8 15 Nordeste 33 Nordeste 0 -- -- 25
2017-08-14 11:00:00 25.9 15 Este 32 Este 0 -- -- 25
2017-08-14 10:00:00 24.7 10 Nordeste 21 Nordeste 0 -- -- 31
2017-08-14 09:00:00 22.5 5 Nordeste 14 Nordeste 0 -- -- 44
2017-08-14 08:00:00 18.9 5 Nordeste 11 Este 0 -- -- 63
2017-08-14 07:00:00 18.1 0 Calma 6 Norte 0 -- -- 80
2017-08-14 06:00:00 18 0 Calma 8 Noroeste 0 -- -- 64
2017-08-14 05:00:00 18 5 Noroeste 9 Noroeste 0 -- -- 84
2017-08-14 04:00:00 18.1 5 Nordeste 16 Nordeste 0 -- -- 94
2017-08-14 03:00:00 18.5 7 Nordeste 25 Este 0 -- -- 93
2017-08-14 02:00:00 18.7 5 Nordeste 22 Nordeste 0 -- -- 93
2017-08-14 01:00:00 19.1 6 Nordeste 19 Nordeste 0 -- -- 91
2017-08-14 00:00:00 19.9 7 Nordeste 18 Este 0 -- -- 86
2017-08-13 23:00:00 20.9 6 Nordeste 18 Este 0 -- -- 80
2017-08-13 22:00:00 22.3 9 Nordeste 24 Este 0 -- -- 69
2017-08-13 21:00:00 23.9 12 Nordeste 26 Este 0 -- -- 57
2017-08-13 20:00:00 25.8 13 Nordeste 31 Nordeste 0 -- -- 47
2017-08-13 19:00:00 27.1 18 Este 37 Este 0 -- -- 44
2017-08-13 18:00:00 28.7 13 Este 33 Este 0 -- -- 40
2017-08-13 17:00:00 28.5 14 Este 36 Este 0 -- -- 38
2017-08-13 16:00:00 28.9 15 Este 39 Este 0 -- -- 34
2017-08-13 15:00:00 28.6 17 Este 35 Norte 0 -- -- 35
2017-08-13 14:00:00 28.7 13 Este 33 Este 0 -- -- 33
2017-08-13 13:00:00 26.9 15 Nordeste 27 Este 0 -- -- 35
2017-08-13 12:00:00 26.1 13 Nordeste 26 Nordeste 0 -- -- 36
2017-08-13 11:00:00 23.9 10 Nordeste 22 Este 0 -- -- 42
2017-08-13 10:00:00 22.1 10 Nordeste 24 Nordeste 0 -- -- 47
2017-08-13 09:00:00 19.8 8 Este 13 Este 0 -- -- 53
2017-08-13 08:00:00 17.8 0 Calma 6 Noroeste 0 -- -- 57
2017-08-13 07:00:00 16.4 0 Calma 10 Oeste 0 -- -- 59
2017-08-13 06:00:00 17.1 2 Noroeste 8 Oeste 0 -- -- 57
2017-08-13 05:00:00 16.3 4 Noroeste 9 Noroeste 0 -- -- 60
2017-08-13 04:00:00 18.1 2 Noroeste 7 Norte 0 -- -- 56
2017-08-13 03:00:00 18.7 0 Calma 5 Noroeste 0 -- -- 54
2017-08-13 02:00:00 19.2 0 Calma 6 Noroeste 0 -- -- 54
2017-08-13 01:00:00 19.7 3 Norte 8 Noroeste 0 -- -- 53
2017-08-13 00:00:00 20.4 3 Norte 8 Este 0 -- -- 49
2017-08-12 23:00:00 21.2 4 Nordeste 15 Nordeste 0 -- -- 50
2017-08-12 22:00:00 21.9 9 Este 19 Este 0 -- -- 49
2017-08-12 21:00:00 23 9 Nordeste 28 Este 0 -- -- 48
2017-08-12 20:00:00 24.3 14 Este 30 Este 0 -- -- 46
2017-08-12 19:00:00 26 15 Este 36 Este 0 -- -- 42
2017-08-12 18:00:00 27.3 16 Este 39 Nordeste 0 -- -- 38
2017-08-12 17:00:00 28.1 15 Nordeste 37 Nordeste 0 -- -- 31
2017-08-12 16:00:00 28.9 17 Nordeste 40 Este 0 -- -- 28
2017-08-12 15:00:00 28.8 14 Este 36 Nordeste 0 -- -- 28
2017-08-12 14:00:00 28.5 16 Nordeste 30 Este 0 -- -- 26
2017-08-12 13:00:00 27.1 14 Este 34 Este 0 -- -- 29
2017-08-12 12:00:00 25.1 16 Nordeste 31 Este 0 -- -- 35
2017-08-12 11:00:00 24.5 12 Nordeste 26 Este 0 -- -- 34
2017-08-12 10:00:00 22.3 15 Nordeste 28 Este 0 -- -- 37
2017-08-12 09:00:00 20.2 0 Calma 11 Nordeste 0 -- -- 71
2017-08-12 08:00:00 16.9 0 Calma 6 Norte 0 -- -- 80
2017-08-12 07:00:00 16.2 3 Norte 10 Nordeste 0 -- -- 90
2017-08-12 06:00:00 16.3 3 Nordeste 8 Este 0 -- -- 90
2017-08-12 05:00:00 17.1 0 Calma 6 Norte 0 -- -- 83
2017-08-12 04:00:00 17.1 2 Nordeste 6 Este 0 -- -- 85
2017-08-12 03:00:00 17.7 0 Calma 6 Norte 0 -- -- 75
2017-08-12 02:00:00 18.5 0 Calma 9 Nordeste 0 -- -- 75
2017-08-12 01:00:00 19.3 4 Nordeste 9 Este 0 -- -- 72
2017-08-12 00:00:00 19.8 4 Nordeste 11 Nordeste 0 -- -- 70
2017-08-11 23:00:00 20.7 5 Nordeste 19 Este 0 -- -- 64
2017-08-11 22:00:00 21.5 10 Este 29 Este 0 -- -- 59
2017-08-11 21:00:00 22.9 13 Este 32 Este 0 -- -- 50
2017-08-11 20:00:00 25 15 Nordeste 30 Este 0 -- -- 39
2017-08-11 19:00:00 27.4 12 Este 31 Este 0 -- -- 37
2017-08-11 18:00:00 27.6 13 Nordeste 32 Este 0 -- -- 37
2017-08-11 17:00:00 26.9 15 Nordeste 30 Este 0 -- -- 38
2017-08-11 16:00:00 27.8 14 Nordeste 33 Nordeste 0 -- -- 38
2017-08-11 15:00:00 27.6 15 Este 32 Este 0 -- -- 38
2017-08-11 14:00:00 26.7 14 Nordeste 28 Este 0 -- -- 39
2017-08-11 13:00:00 26.4 12 Nordeste 30 Este 0 -- -- 41
2017-08-11 12:00:00 25.2 14 Nordeste 24 Nordeste 0 -- -- 42
2017-08-11 11:00:00 23.5 12 Nordeste 22 Este 0 -- -- 50
2017-08-11 10:00:00 20.9 6 Este 14 Este 0 -- -- 66
2017-08-11 09:00:00 19.3 2 Norte 7 Noroeste 0 -- -- 74
2017-08-11 08:00:00 17.6 0 Calma 8 Oeste 0 -- -- 84
2017-08-11 07:00:00 17.1 2 Noroeste 8 Noroeste 0 -- -- 79
2017-08-11 06:00:00 17.5 0 Calma 7 Oeste 0 -- -- 80
2017-08-11 05:00:00 18 0 Calma 10 Nordeste 0 -- -- 81
2017-08-11 04:00:00 18.2 3 Norte 15 Este 0 -- -- 87
2017-08-11 03:00:00 18.5 8 Este 16 Este 0 -- -- 90
2017-08-11 02:00:00 18.6 9 Este 19 Este 0 -- -- 91
2017-08-11 01:00:00 18.9 6 Nordeste 16 Nordeste 0 -- -- 91
2017-08-11 00:00:00 18.5 4 Nordeste 17 Este 0 -- -- 91
2017-08-10 23:00:00 19 8 Nordeste 18 Este 0 -- -- 87
2017-08-10 22:00:00 19.7 8 Nordeste 24 Este 0 -- -- 81
2017-08-10 21:00:00 21 15 Nordeste 31 Este 0 -- -- 72
2017-08-10 20:00:00 22.2 17 Este 35 Este 0 -- -- 65
2017-08-10 19:00:00 24.5 16 Este 36 Nordeste 0 -- -- 54
2017-08-10 18:00:00 25.4 13 Este 36 Nordeste 0 -- -- 50
2017-08-10 17:00:00 25.9 13 Nordeste 32 Este 0 -- -- 49
2017-08-10 16:00:00 26.4 14 Nordeste 35 Nordeste 0 -- -- 49
2017-08-10 15:00:00 25.5 14 Nordeste 36 Este 0 -- -- 52
2017-08-10 14:00:00 24.9 15 Nordeste 33 Este 0 -- -- 53
2017-08-10 13:00:00 24.5 17 Nordeste 36 Este 0 -- -- 57
2017-08-10 12:00:00 23.5 17 Nordeste 36 Nordeste 0 -- -- 61
2017-08-10 11:00:00 21.5 16 Nordeste 34 Nordeste 0 -- -- 70
2017-08-10 10:00:00 19.8 12 Nordeste 30 Nordeste 0 -- -- 86
2017-08-10 09:00:00 20.2 8 Nordeste 18 Nordeste 0 -- -- 83
2017-08-10 08:00:00 18.7 2 Norte 10 Norte 0 -- -- 46
2017-08-10 07:00:00 18.7 5 Noroeste 12 Noroeste 0 -- -- 43
2017-08-10 06:00:00 19 3 Noroeste 11 Noroeste 0 -- -- 41
2017-08-10 05:00:00 20.2 3 Noroeste 10 Oeste 0 -- -- 37
2017-08-10 04:00:00 20.7 0 Calma 11 Oeste 0 -- -- 33
2017-08-10 03:00:00 22.4 2 Noroeste 13 Noroeste 0 -- -- 31
2017-08-10 02:00:00 22.8 5 Noroeste 14 Oeste 0 -- -- 31
2017-08-10 01:00:00 22.8 6 Noroeste 15 Noroeste 0 -- -- 31
2017-08-10 00:00:00 25.1 3 Norte 17 Noroeste 0 -- -- 30
2017-08-09 23:00:00 25.4 3 Norte 12 Norte 0 -- -- 37
2017-08-09 22:00:00 24.4 0 Calma 12 Nordeste 0 -- -- 75
2017-08-09 21:00:00 25.2 6 Este 18 Este 0 -- -- 70
2017-08-09 20:00:00 26.5 8 Nordeste 24 Nordeste 0 -- -- 61
2017-08-09 19:00:00 28.4 10 Nordeste 32 Nordeste 0 -- -- 54
2017-08-09 18:00:00 29.4 13 Nordeste 30 Nordeste 0 -- -- 49
2017-08-09 17:00:00 29.5 12 Nordeste 26 Este 0 -- -- 49
2017-08-09 16:00:00 30.1 12 Nordeste 33 Nordeste 0 -- -- 46
2017-08-09 15:00:00 30 12 Nordeste 28 Este 0 -- -- 45
2017-08-09 14:00:00 30.5 7 Norte 24 Nordeste 0 -- -- 40
2017-08-09 13:00:00 29.3 6 Nordeste 23 Este 0 -- -- 39
2017-08-09 12:00:00 27.7 10 Nordeste 20 Este 0 -- -- 46
2017-08-09 11:00:00 25.7 8 Nordeste 17 Norte 0 -- -- 50
2017-08-09 10:00:00 25.1 4 Nordeste 9 Este 0 -- -- 49
2017-08-09 09:00:00 22.5 0 Calma 12 Oeste 0 -- -- 46
2017-08-09 08:00:00 20.3 4 Noroeste 12 Noroeste 0 -- -- 46
2017-08-09 07:00:00 18.5 0 Calma 8 Oeste 0 -- -- 51
2017-08-09 06:00:00 20.1 2 Noroeste 9 Oeste 0 -- -- 42
2017-08-09 05:00:00 20.3 3 Noroeste 13 Norte 0 -- -- 42
2017-08-09 04:00:00 21 3 Noroeste 10 Norte 0 -- -- 43
2017-08-09 03:00:00 21.3 2 Nordeste 12 Nordeste 0 -- -- 49
2017-08-09 02:00:00 23.1 5 Nordeste 12 Nordeste 0 -- -- 24
2017-08-09 01:00:00 24.7 2 Noroeste 13 Noroeste 0 -- -- 22
2017-08-09 00:00:00 24.9 8 Noroeste 13 Noroeste 0 -- -- 21
2017-08-08 23:00:00 26.2 7 Noroeste 21 Norte 0 -- -- 20
2017-08-08 22:00:00 28.8 7 Noroeste 19 Noroeste 0 -- -- 20
2017-08-08 21:00:00 30.4 8 Noroeste 18 Noroeste 0 -- -- 20
2017-08-08 20:00:00 31.8 7 Noroeste 23 Noroeste 0 -- -- 20
2017-08-08 19:00:00 34.3 8 Norte 27 Norte 0 -- -- 19
2017-08-08 18:00:00 35.5 6 Norte 27 Noroeste 0 -- -- 16
2017-08-08 17:00:00 36.1 5 Norte 26 Noroeste 0 -- -- 17
2017-08-08 16:00:00 36.5 5 Norte 24 Norte 0 -- -- 19
2017-08-08 15:00:00 38.3 4 Norte 23 Nordeste 0 -- -- 20
2017-08-08 14:00:00 35.9 6 Norte 17 Norte 0 -- -- 23
2017-08-08 13:00:00 36.5 5 Norte 21 Noroeste 0 -- -- 24
2017-08-08 12:00:00 33.4 6 Norte 20 Noroeste 0 -- -- 29
2017-08-08 11:00:00 32 8 Noroeste 18 Noroeste 0 -- -- 31
2017-08-08 10:00:00 30.8 0 Calma 8 Noroeste 0 -- -- 42
2017-08-08 09:00:00 26.7 0 Calma 13 Noroeste 0 -- -- 48
2017-08-08 08:00:00 24.3 0 Calma 9 Sur 0 -- -- 50
2017-08-08 07:00:00 23.2 4 Oeste 14 Oeste 0 -- -- 53
2017-08-08 06:00:00 23.5 4 Sudoeste 12 Sur 0 -- -- 52
2017-08-08 05:00:00 24.9 3 Sudoeste 17 Sur 0 -- -- 49
2017-08-08 04:00:00 24 3 Oeste 11 Noroeste 0 -- -- 50
2017-08-08 03:00:00 24.1 2 Oeste 18 Noroeste 0 -- -- 54
2017-08-08 02:00:00 24.7 3 Oeste 18 Oeste 0 -- -- 53
2017-08-08 01:00:00 24.4 2 Oeste 12 Sudoeste 0 -- -- 61
2017-08-08 00:00:00 24.9 3 Sudoeste 12 Sur 0 -- -- 57
2017-08-07 23:00:00 25.2 2 Sudoeste 12 Sur 0 -- -- 57
2017-08-07 22:00:00 27 2 Este 13 Sur 0 -- -- 60
2017-08-07 21:00:00 28.1 2 Noroeste 14 Este 0 -- -- 55
2017-08-07 20:00:00 30.1 2 Noroeste 17 Norte 0 -- -- 43
2017-08-07 19:00:00 26.5 19 Norte 43 Norte 1 -- -- 52
2017-08-07 18:00:00 29.6 9 Noroeste 37 Noroeste 0 -- -- 32
2017-08-07 17:00:00 29.5 8 Noroeste 28 Norte 0 -- -- 36
2017-08-07 16:00:00 33.3 8 Norte 51 Norte 0 -- -- 29
2017-08-07 15:00:00 27 4 Norte 23 Este 0.2 -- -- 57
2017-08-07 14:00:00 30.2 12 Nordeste 27 Este 0.1 -- -- 56
2017-08-07 13:00:00 29.6 11 Nordeste 26 Este 0 -- -- 52
2017-08-07 12:00:00 28.1 9 Nordeste 27 Nordeste 0 -- -- 57
2017-08-07 11:00:00 26.5 13 Nordeste 28 Nordeste 0 -- -- 63
2017-08-07 10:00:00 27.9 4 Nordeste 15 Noroeste 0 -- -- 42
2017-08-07 09:00:00 25.8 0 Calma 7 Norte 0 -- -- 56
2017-08-07 08:00:00 21.8 0 Calma 11 Noroeste 0 -- -- 79
2017-08-07 07:00:00 21.1 0 Calma 10 Oeste 0 -- -- 87
2017-08-07 06:00:00 21.6 0 Calma 6 Este 0 -- -- 86
2017-08-07 05:00:00 21.7 0 Calma 8 Noroeste 0 -- -- 83
2017-08-07 04:00:00 22.6 0 Calma 5 Noroeste 0 -- -- 82
2017-08-07 03:00:00 22.9 0 Calma 5 Norte 0 -- -- 85
2017-08-07 02:00:00 23.2 4 Nordeste 10 Este 0 -- -- 86
2017-08-07 01:00:00 23.4 6 Nordeste 11 Este 0 -- -- 86
2017-08-07 00:00:00 24.3 5 Nordeste 15 Nordeste 0 -- -- 83
2017-08-06 23:00:00 25.5 5 Nordeste 14 Nordeste 0 -- -- 75
2017-08-06 22:00:00 26.3 6 Nordeste 21 Este 0 -- -- 68
2017-08-06 21:00:00 27.9 11 Este 28 Este 0 -- -- 57
2017-08-06 20:00:00 28.5 15 Nordeste 32 Este 0 -- -- 58
2017-08-06 19:00:00 30.7 17 Nordeste 34 Nordeste 0 -- -- 46
2017-08-06 18:00:00 32.1 17 Nordeste 35 Este 0 -- -- 40
2017-08-06 17:00:00 32.5 16 Nordeste 35 Este 0 -- -- 37
2017-08-06 16:00:00 32.8 15 Nordeste 34 Nordeste 0 -- -- 33
2017-08-06 15:00:00 33.5 14 Nordeste 32 Este 0 -- -- 31
2017-08-06 14:00:00 33.6 16 Nordeste 38 Este 0 -- -- 31
2017-08-06 13:00:00 33 15 Nordeste 28 Este 0 -- -- 30
2017-08-06 12:00:00 33.6 7 Nordeste 15 Este 0 -- -- 28
2017-08-06 11:00:00 33.1 3 Nordeste 9 Nordeste 0 -- -- 29
2017-08-06 10:00:00 30 4 Este 8 Este 0 -- -- 33
2017-08-06 09:00:00 27 0 Calma 10 Noroeste 0 -- -- 36
2017-08-06 08:00:00 24.7 4 Oeste 13 Noroeste 0 -- -- 38
2017-08-06 07:00:00 23.3 2 Noroeste 14 Oeste 0 -- -- 38
2017-08-06 06:00:00 25.3 6 Noroeste 15 Noroeste 0 -- -- 35
2017-08-06 05:00:00 27 6 Noroeste 19 Oeste 0 -- -- 34
2017-08-06 04:00:00 27.4 6 Noroeste 21 Norte 0 -- -- 34
2017-08-06 03:00:00 26.6 4 Noroeste 10 Noroeste 0 -- -- 36
2017-08-06 02:00:00 25.3 0 Calma 9 Noroeste 0 -- -- 37
2017-08-06 01:00:00 25.7 4 Noroeste 10 Oeste 0 -- -- 38
2017-08-06 00:00:00 26.4 0 Calma 7 Oeste 0 -- -- 37
2017-08-05 23:00:00 27.3 0 Calma 6 Noroeste 0 -- -- 36
2017-08-05 22:00:00 28 3 Nordeste 15 Este 0 -- -- 35
2017-08-05 21:00:00 29.4 7 Nordeste 23 Este 0 -- -- 33
2017-08-05 20:00:00 30.6 12 Este 35 Este 0 -- -- 31
2017-08-05 19:00:00 32.5 15 Nordeste 33 Nordeste 0 -- -- 30
2017-08-05 18:00:00 33.4 15 Este 40 Este 0 -- -- 30
2017-08-05 17:00:00 33.7 19 Nordeste 42 Nordeste 0 -- -- 29
2017-08-05 16:00:00 34.2 20 Este 40 Nordeste 0 -- -- 29
2017-08-05 15:00:00 34.8 19 Nordeste 38 Este 0 -- -- 29
2017-08-05 14:00:00 34.4 19 Nordeste 37 Este 0 -- -- 28
2017-08-05 13:00:00 34 19 Nordeste 33 Nordeste 0 -- -- 28
2017-08-05 12:00:00 34 15 Nordeste 31 Este 0 -- -- 28
2017-08-05 11:00:00 32.8 9 Este 22 Este 0 -- -- 30
2017-08-05 10:00:00 32.4 0 Calma 6 Nordeste 0 -- -- 31
2017-08-05 09:00:00 28.3 0 Calma 5 Oeste 0 -- -- 35
2017-08-05 08:00:00 26.3 0 Calma 14 Oeste 0 -- -- 35
2017-08-05 07:00:00 26.1 3 Noroeste 10 Oeste 0 -- -- 35
2017-08-05 06:00:00 25.4 2 Noroeste 14 Noroeste 0 -- -- 37
2017-08-05 05:00:00 24.3 3 Noroeste 8 Noroeste 0 -- -- 39
2017-08-05 04:00:00 23.8 0 Calma 6 Oeste 0 -- -- 40
2017-08-05 03:00:00 25.2 2 Norte 9 Noroeste 0 -- -- 38
2017-08-05 02:00:00 25 2 Norte 12 Noroeste 0 -- -- 37
2017-08-05 01:00:00 26.7 3 Norte 13 Norte 0 -- -- 35
2017-08-05 00:00:00 27.9 3 Noroeste 11 Norte 0 -- -- 35
2017-08-04 23:00:00 28.5 3 Nordeste 14 Nordeste 0 -- -- 35
2017-08-04 22:00:00 29.4 6 Nordeste 24 Este 0 -- -- 32
2017-08-04 21:00:00 30.9 13 Este 34 Este 0 -- -- 31
2017-08-04 20:00:00 32.2 16 Nordeste 32 Nordeste 0 -- -- 31
2017-08-04 19:00:00 34 15 Nordeste 34 Este 0 -- -- 30
2017-08-04 18:00:00 34.5 15 Nordeste 36 Nordeste 0 -- -- 29
2017-08-04 17:00:00 35.2 15 Este 39 Nordeste 0 -- -- 27
2017-08-04 16:00:00 35.9 15 Este 32 Este 0 -- -- 27
2017-08-04 15:00:00 35.5 14 Nordeste 32 Este 0 -- -- 27
2017-08-04 14:00:00 35.2 14 Este 35 Nordeste 0 -- -- 27
2017-08-04 13:00:00 35.7 9 Nordeste 21 Nordeste 0 -- -- 24
2017-08-04 12:00:00 34 12 Nordeste 25 Este 0 -- -- 24
2017-08-04 11:00:00 34.8 4 Norte 15 Noroeste 0 911.6 -0.2 24
2017-08-04 10:00:00 32.4 3 Noroeste 14 Noroeste 0 911.6 0.2 27
2017-08-04 09:00:00 28.8 4 Norte 12 Sur 0 911.7 1.2 29
2017-08-04 08:00:00 26.3 3 Noroeste 12 Noroeste 0 911.8 1.1 30
2017-08-04 07:00:00 24.6 8 Oeste 14 Oeste 0 911.4 -0.3 31
2017-08-04 06:00:00 24.5 2 Noroeste 10 Norte 0 910.5 -1.2 31
2017-08-04 05:00:00 24.3 2 Noroeste 13 Oeste 0 910.7 -1.4 31
2017-08-04 04:00:00 24.9 3 Noroeste 11 Noroeste 0 911.7 -0.8 31
2017-08-04 03:00:00 24.3 0 Calma 8 Noroeste 0 911.7 -0.7 31
2017-08-04 02:00:00 26.6 0 Calma 10 Noroeste 0 912.1 -0.3 30
2017-08-04 01:00:00 26.7 0 Calma 10 Noroeste 0 912.5 0.7 33
2017-08-04 00:00:00 27.1 2 Noroeste 9 Noroeste 0 912.4 1.2 37
2017-08-03 23:00:00 27.9 2 Noroeste 9 Noroeste 0 912.4 1.8 38
2017-08-03 22:00:00 29.1 0 Calma 10 Este 0 911.8 1.5 38
2017-08-03 21:00:00 30 5 Nordeste 20 Este 0 911.2 0.8 36
2017-08-03 20:00:00 31.1 10 Nordeste 27 Este 0 910.6 0.1 35
2017-08-03 19:00:00 33.1 14 Este 27 Este 0 910.3 -0.3 33
2017-08-03 18:00:00 33.2 14 Este 29 Este 0 910.4 -0.6 33
2017-08-03 17:00:00 34 12 Este 28 Este 0 910.5 -1.1 33
2017-08-03 16:00:00 35.3 9 Este 26 Este 0 910.6 -1.4 30
2017-08-03 15:00:00 34.4 11 Este 27 Este 0 911 -1.2 28
2017-08-03 14:00:00 34.4 9 Este 24 Este 0 911.6 -0.9 27
2017-08-03 13:00:00 33.8 7 Este 21 Este 0 912 -0.8 27
2017-08-03 12:00:00 33.5 6 Nordeste 14 Nordeste 0 912.2 -0.4 24
2017-08-03 11:00:00 32.3 3 Nordeste 10 Norte 0 912.5 -0.1 28
2017-08-03 10:00:00 30 3 Norte 14 Norte 0 912.8 0.4 33
2017-08-03 09:00:00 27.7 2 Noroeste 15 Noroeste 0 912.6 0.5 37
2017-08-03 08:00:00 24.1 4 Noroeste 17 Noroeste 0 912.6 1.3 41
2017-08-03 07:00:00 23.2 5 Noroeste 21 Noroeste 0 912.4 0.3 43
2017-08-03 06:00:00 23.3 5 Noroeste 18 Noroeste 0 912.1 -0.3 43
2017-08-03 05:00:00 24.4 4 Norte 17 Norte 0 911.3 -1.6 39
2017-08-03 04:00:00 23.7 4 Norte 12 Noroeste 0 912.1 -1.2 47
2017-08-03 03:00:00 23.9 4 Noroeste 12 Noroeste 0 912.4 -0.4 68
2017-08-03 02:00:00 22.8 6 Oeste 10 Oeste 0 912.9 -0.3 78
2017-08-03 01:00:00 23.8 2 Noroeste 6 Norte 0 913.3 0.9 78
2017-08-03 00:00:00 24.5 3 Nordeste 12 Nordeste 0 912.8 1.4 76
2017-08-02 23:00:00 24.9 6 Nordeste 21 Nordeste 0 913.2 2.8 75
2017-08-02 22:00:00 25.7 9 Este 27 Este 0 912.4 2.3 68
2017-08-02 21:00:00 28 13 Nordeste 30 Nordeste 0 911.4 1.2 54
2017-08-02 20:00:00 30 13 Nordeste 32 Sudeste 0 910.4 0.1 42
2017-08-02 19:00:00 31.8 12 Este 32 Este 0 910.1 -0.5 38
2017-08-02 18:00:00 32 15 Este 29 Este 0 910.2 -0.5 39
2017-08-02 17:00:00 32.2 14 Nordeste 30 Este 0 910.3 -0.2 39
2017-08-02 16:00:00 32.6 11 Nordeste 30 Nordeste 0 910.6 -0.6 37
2017-08-02 15:00:00 31.8 15 Nordeste 31 Nordeste 0 910.7 -0.5 36
2017-08-02 14:00:00 31.2 19 Este 35 Nordeste 0 910.5 -0.6 38
2017-08-02 13:00:00 29.2 21 Nordeste 37 Este 0 911.2 -0.1 38
2017-08-02 12:00:00 30.5 15 Nordeste 33 Este 0 911.2 -0.6 37
2017-08-02 11:00:00 27.7 12 Nordeste 29 Este 0 911.1 -0.3 38
2017-08-02 10:00:00 26.4 2 Nordeste 6 Nordeste 0 911.3 0.4 40
2017-08-02 09:00:00 23.3 0 Calma 12 Oeste 0 911.8 0.6 46
2017-08-02 08:00:00 21.8 4 Noroeste 12 Oeste 0 911.4 0.3 46
2017-08-02 07:00:00 22.1 2 Norte 6 Oeste 0 910.9 -0.7 45
2017-08-02 06:00:00 23 2 Noroeste 12 Noroeste 0 911.2 -0.6 45
2017-08-02 05:00:00 23.4 8 Noroeste 14 Oeste 0 911.1 -0.2 55
2017-08-02 04:00:00 23.9 0 Calma 16 Este 0 911.6 0 57
2017-08-02 03:00:00 24.5 9 Este 25 Sudeste 0 911.8 -0.8 55
2017-08-02 02:00:00 23.4 2 Norte 10 Nordeste 0 911.3 -0.2 70
2017-08-02 01:00:00 23.7 4 Nordeste 33 Norte 0 911.6 0.4 68
2017-08-02 00:00:00 24.7 17 Norte 41 Sudeste 0 912.6 2.5 62
2017-08-01 23:00:00 24.3 9 Nordeste 23 Nordeste 0 911.5 0.5 72
2017-08-01 22:00:00 25.5 13 Nordeste 49 Norte 0 911.2 2.1 58
2017-08-01 21:00:00 26.7 18 Nordeste 47 Norte 0 910.1 1.1 53
2017-08-01 20:00:00 26.8 17 Nordeste 36 Nordeste 0 911 2.3 51
2017-08-01 19:00:00 28.3 16 Nordeste 30 Nordeste 0 909.1 0.7 47
2017-08-01 18:00:00 29 10 Nordeste 32 Este 0 909 0.7 45
2017-08-01 17:00:00 30.5 14 Este 33 Este 0 908.7 0.3 35
2017-08-01 16:00:00 30.3 12 Nordeste 27 Nordeste 0 908.4 -0.6 36
2017-08-01 15:00:00 32.8 10 Nordeste 22 Este 0 908.3 0.3 28
2017-08-01 14:00:00 32.2 4 Noroeste 13 Oeste 0 908.4 0.7 30
2017-08-01 13:00:00 31.6 2 Nordeste 14 Nordeste 0 909 1.4 34
2017-08-01 12:00:00 30.7 2 Nordeste 12 Nordeste 0 908 0.2 31
2017-08-01 11:00:00 29.3 3 Norte 10 Norte 0 907.7 0.3 36
2017-08-01 10:00:00 28.8 3 Norte 9 Noroeste 0 907.6 0.4 37
2017-08-01 09:00:00 26.1 0 Calma 11 Noroeste 0 907.8 0.6 40
2017-08-01 08:00:00 23.7 4 Noroeste 15 Noroeste 0 907.4 0.7 42
2017-08-01 07:00:00 23.2 4 Noroeste 17 Noroeste 0 907.2 0.4 42
2017-08-01 06:00:00 23 4 Noroeste 16 Oeste 0 907.2 0 44
2017-08-01 05:00:00 22.6 2 Noroeste 12 Este 0 906.7 -0.7 53
2017-08-01 04:00:00 23.6 0 Calma 9 Noroeste 0 906.8 -0.5 48
2017-08-01 03:00:00 25.3 4 Noroeste 13 Noroeste 0 907.2 -0.1 44
2017-08-01 02:00:00 23.7 6 Noroeste 12 Oeste 0 907.4 0.1 54
2017-08-01 01:00:00 24 3 Norte 9 Norte 0 907.3 0.7 55
2017-08-01 00:00:00 24.2 2 Noroeste 8 Noroeste 0 907.3 1.3 54
2017-07-31 23:00:00 24.6 0 Calma 9 Nordeste 0 907.3 2.3 53
2017-07-31 22:00:00 24.8 4 Nordeste 20 Este 0 906.6 2.6 51
2017-07-31 21:00:00 25.7 15 Este 32 Este 0 906 1.8 46
2017-07-31 20:00:00 29.7 11 Nordeste 35 Nordeste 0 905 0.7 40
2017-07-31 19:00:00 31.9 23 Nordeste 40 Nordeste 0 904 -1.1 35
2017-07-31 18:00:00 32.9 16 Este 36 Este 0 904.2 -1.1 33
2017-07-31 17:00:00 34 12 Nordeste 37 Este 0 904.3 -0.8 32
2017-07-31 16:00:00 32.7 19 Este 41 Este 0 905.1 -0.6 34
2017-07-31 15:00:00 32.9 18 Este 38 Nordeste 0 905.3 -0.8 33
2017-07-31 14:00:00 33.1 14 Nordeste 39 Este 0 905.1 -0.9 34
2017-07-31 13:00:00 32.6 14 Este 32 Sudeste 0 905.7 -0.5 31
2017-07-31 12:00:00 31 13 Este 30 Este 0 906.1 -0.5 29
2017-07-31 11:00:00 30 12 Nordeste 21 Este 0 906 -0.6 30
2017-07-31 10:00:00 30.4 0 Calma 7 Este 0 906.2 -0.1 29
2017-07-31 09:00:00 25.3 0 Calma 9 Oeste 0 906.6 0.7 33
2017-07-31 08:00:00 22.9 4 Noroeste 10 Oeste 0 906.6 0.2 33
2017-07-31 07:00:00 22.8 0 Calma 11 Noroeste 0 906.3 -0.4 34
2017-07-31 06:00:00 22.8 2 Noroeste 10 Noroeste 0 905.9 -1.5 37
2017-07-31 05:00:00 22.9 3 Noroeste 8 Noroeste 0 906.4 -1.5 39
2017-07-31 04:00:00 22.9 0 Calma 7 Oeste 0 906.7 -1.6 42
2017-07-31 03:00:00 23.2 0 Calma 8 Noroeste 0 907.4 -1 41
2017-07-31 02:00:00 23.7 3 Oeste 9 Oeste 0 907.9 -0.5 40
2017-07-31 01:00:00 24.6 2 Noroeste 7 Nordeste 0 908.3 0.8 38
2017-07-31 00:00:00 25.8 3 Nordeste 7 Este 0 908.4 1.4 38
2017-07-30 23:00:00 27 2 Este 10 Este 0 908.4 1.8 35
2017-07-30 22:00:00 28.6 3 Nordeste 10 Nordeste 0 907.5 1.1 34
2017-07-30 21:00:00 30.1 5 Nordeste 24 Nordeste 0 907 0.6 32
2017-07-30 20:00:00 31.1 13 Este 31 Nordeste 0 906.6 0 32
2017-07-30 19:00:00 33.3 14 Este 35 Este 0 906.4 -0.8 29
2017-07-30 18:00:00 34.1 15 Nordeste 34 Este 0 906.4 -1.2 27
2017-07-30 17:00:00 35.3 15 Nordeste 31 Nordeste 0 906.6 -1.6 26
2017-07-30 16:00:00 35.2 16 Nordeste 37 Nordeste 0 907.2 -1.3 25
2017-07-30 15:00:00 35.4 16 Nordeste 36 Nordeste 0 907.6 -1.4 24
2017-07-30 14:00:00 35.3 18 Nordeste 37 Nordeste 0 908.2 -1 24
2017-07-30 13:00:00 34.8 20 Este 37 Este 0 908.5 -1.3 23
2017-07-30 12:00:00 34.5 14 Nordeste 32 Este 0 909 -1.2 23
2017-07-30 11:00:00 33.1 8 Nordeste 15 Este 0 909.2 -0.6 25
2017-07-30 10:00:00 30.1 3 Norte 9 Norte 0 909.8 0.1 27
2017-07-30 09:00:00 26.6 3 Este 12 Noroeste 0 910.2 0.4 29
2017-07-30 08:00:00 26.1 0 Calma 17 Sur 0 909.8 -0.5 28
2017-07-30 07:00:00 25.3 2 Oeste 14 Sur 0 909.7 -0.7 28
2017-07-30 06:00:00 26.3 5 Sur 17 Sur 0 909.8 -1.1 28
2017-07-30 05:00:00 25.1 10 Oeste 18 Oeste 0 910.3 -1 28
2017-07-30 04:00:00 27.2 7 Oeste 18 Norte 0 910.4 -1.2 27
2017-07-30 03:00:00 27.3 2 Noroeste 17 Sur 0 910.9 -0.8 28
2017-07-30 02:00:00 27.6 0 Calma 14 Oeste 0 911.3 -0.3 30
2017-07-30 01:00:00 28.1 4 Oeste 14 Oeste 0 911.6 0.5 31
2017-07-30 00:00:00 27.8 2 Oeste 10 Noroeste 0 911.7 1.2 37
2017-07-29 23:00:00 27.8 0 Calma 7 Sudoeste 0 911.6 1.6 41
2017-07-29 22:00:00 28 2 Nordeste 12 Este 0 911.1 1.2 42
2017-07-29 21:00:00 29.3 6 Nordeste 22 Nordeste 0 910.5 0.5 41
2017-07-29 20:00:00 30.7 12 Este 35 Este 0 910 -0.5 36
2017-07-29 19:00:00 32.7 15 Nordeste 32 Este 0 909.9 -0.7 31
2017-07-29 18:00:00 33.3 17 Nordeste 35 Nordeste 0 910 -1.1 30
2017-07-29 17:00:00 32.9 17 Nordeste 38 Este 0 910.5 -0.9 29
2017-07-29 16:00:00 33.3 17 Nordeste 37 Este 0 910.6 -1.1 29
2017-07-29 15:00:00 33.4 18 Nordeste 34 Este 0 911.1 -0.7 27
2017-07-29 14:00:00 34.3 13 Este 31 Sudeste 0 911.4 -0.3 25
2017-07-29 13:00:00 33.8 13 Nordeste 33 Nordeste 0 911.7 -0.3 25
2017-07-29 12:00:00 32.8 13 Nordeste 27 Este 0 911.8 -0.3 25
2017-07-29 11:00:00 33.5 3 Nordeste 12 Nordeste 0 911.7 0.2 24
2017-07-29 10:00:00 30.6 2 Este 4 Este 0 912 0.2 28
2017-07-29 09:00:00 26.1 0 Calma 13 Oeste 0 912.1 0.4 31
2017-07-29 08:00:00 23.5 7 Oeste 13 Oeste 0 911.5 0.1 31
2017-07-29 07:00:00 23.2 2 Noroeste 10 Noroeste 0 911.8 0.3 31
2017-07-29 06:00:00 24.6 0 Calma 16 Norte 0 911.7 -0.2 31
2017-07-29 05:00:00 24.7 4 Noroeste 15 Sudoeste 0 911.4 -0.1 31
2017-07-29 04:00:00 25.8 5 Oeste 15 Oeste 0 911.5 -0.8 31
2017-07-29 03:00:00 25.4 0 Calma 12 Oeste 0 911.9 -0.3 34
2017-07-29 02:00:00 24.5 4 Noroeste 10 Oeste 0 911.5 -0.6 37
2017-07-29 01:00:00 25.3 0 Calma 7 Oeste 0 912.3 0.8 36
2017-07-29 00:00:00 26 0 Calma 8 Oeste 0 912.2 1.4 35
2017-07-28 23:00:00 27.1 0 Calma 8 Nordeste 0 912.1 1.8 34
2017-07-28 22:00:00 27.9 4 Nordeste 21 Este 0 911.5 1.6 32
2017-07-28 21:00:00 29.2 8 Nordeste 27 Este 0 910.8 1.1 31
2017-07-28 20:00:00 30.3 13 Este 32 Este 0 910.3 0.6 30
2017-07-28 19:00:00 32.3 17 Nordeste 36 Nordeste 0 909.9 0 28
2017-07-28 18:00:00 33.5 19 Nordeste 39 Este 0 909.7 -0.3 27
2017-07-28 17:00:00 33.7 17 Este 39 Sudeste 0 909.7 -0.6 27
2017-07-28 16:00:00 34.1 17 Este 33 Este 0 909.9 -0.5 26
2017-07-28 15:00:00 35.7 12 Nordeste 30 Este 0 910 -0.4 23
2017-07-28 14:00:00 35.7 12 Este 27 Este 0 910.3 -0.4 23
2017-07-28 13:00:00 35.5 9 Nordeste 22 Este 0 910.4 -0.8 23
2017-07-28 12:00:00 35.3 4 Nordeste 11 Norte 0 910.4 -0.8 24
2017-07-28 11:00:00 32.8 4 Nordeste 17 Este 0 910.7 -0.6 27
2017-07-28 10:00:00 30.2 4 Noroeste 15 Noroeste 0 911.2 0.5 31
2017-07-28 09:00:00 27.7 3 Noroeste 15 Norte 0 911.2 0.4 34
2017-07-28 08:00:00 24.9 4 Norte 17 Norte 0 911.3 0.6 36
2017-07-28 07:00:00 23.9 8 Noroeste 19 Noroeste 0 910.7 0.1 37
2017-07-28 06:00:00 24.4 2 Oeste 14 Noroeste 0 910.8 0 36
2017-07-28 05:00:00 25 4 Noroeste 13 Oeste 0 910.7 -0.5 35
2017-07-28 04:00:00 25.9 5 Noroeste 14 Noroeste 0 910.6 -0.4 35
2017-07-28 03:00:00 25 0 Calma 13 Oeste 0 910.8 -0.3 37
2017-07-28 02:00:00 24.2 10 Noroeste 14 Noroeste 0 911.2 0.2 42
2017-07-28 01:00:00 24.8 3 Noroeste 9 Noroeste 0 911 0.7 43
2017-07-28 00:00:00 25.4 2 Noroeste 9 Noroeste 0 911.1 1.3 41
2017-07-27 23:00:00 26.3 2 Noroeste 6 Norte 0 911 1.7 42
2017-07-27 22:00:00 27 3 Nordeste 12 Este 0 910.3 1.1 41
2017-07-27 21:00:00 27.8 8 Nordeste 21 Este 0 909.8 0.6 39
2017-07-27 20:00:00 28.7 10 Nordeste 26 Este 0 909.3 0 38
2017-07-27 19:00:00 30.6 12 Nordeste 32 Este 0 909.2 -0.6 35
2017-07-27 18:00:00 31.2 15 Nordeste 36 Nordeste 0 909.2 -0.7 34
2017-07-27 17:00:00 31.2 15 Nordeste 38 Este 0 909.3 -1.2 32
2017-07-27 16:00:00 31.4 16 Nordeste 35 Nordeste 0 909.8 -1.1 34
2017-07-27 15:00:00 31.6 17 Este 33 Nordeste 0 909.9 -1.1 35
2017-07-27 14:00:00 31.2 15 Nordeste 32 Este 0 910.5 -1 35
2017-07-27 13:00:00 30.4 14 Nordeste 26 Nordeste 0 910.9 -0.7 34
2017-07-27 12:00:00 29.8 11 Nordeste 22 Este 0 911 -0.4 35
2017-07-27 11:00:00 28.8 6 Nordeste 17 Nordeste 0 911.5 0.3 38
2017-07-27 10:00:00 27.2 0 Calma 6 Nordeste 0 911.6 0.6 40
2017-07-27 09:00:00 24.2 0 Calma 5 Noroeste 0 911.4 0.4 49
2017-07-27 08:00:00 21.7 2 Noroeste 12 Oeste 0 911.2 0.4 53
2017-07-27 07:00:00 19.4 5 Noroeste 10 Oeste 0 911 0.1 57
2017-07-27 06:00:00 20.3 2 Noroeste 6 Noroeste 0 911 0.1 56
2017-07-27 05:00:00 21.1 3 Oeste 10 Oeste 0 910.8 -0.1 54
2017-07-27 04:00:00 21.3 2 Noroeste 7 Norte 0 910.9 0.5 50
2017-07-27 03:00:00 22 0 Calma 4 Norte 0 910.9 -0.1 51
2017-07-27 02:00:00 22.2 0 Calma 8 Sur 0 910.9 0 49
2017-07-27 01:00:00 23.5 0 Calma 6 Noroeste 0 910.4 0.1 51
2017-07-27 00:00:00 24.5 2 Oeste 6 Noroeste 0 911 1.2 49
2017-07-26 23:00:00 25.1 2 Nordeste 5 Este 0 910.9 1.9 47
2017-07-26 22:00:00 25.3 3 Este 16 Nordeste 0 910.3 1.5 49
2017-07-26 21:00:00 26.4 8 Nordeste 26 Nordeste 0 909.8 1.3 44
2017-07-26 20:00:00 26.9 15 Este 29 Este 0 909 0.5 45
2017-07-26 19:00:00 28.2 15 Nordeste 35 Este 0 908.8 -0.3 43
2017-07-26 18:00:00 28.9 14 Este 37 Sudeste 0 908.5 -0.6 42
2017-07-26 17:00:00 29.2 15 Este 35 Este 0 908.5 -1 42
2017-07-26 16:00:00 29.9 15 Nordeste 33 Este 0 909.1 -0.8 40
2017-07-26 15:00:00 30.3 12 Nordeste 29 Este 0 909.1 -1.1 38
2017-07-26 14:00:00 30.3 10 Nordeste 25 Este 0 909.5 -0.8 38
2017-07-26 13:00:00 28.6 10 Nordeste 21 Este 0 909.9 -0.5 44
2017-07-26 12:00:00 27.3 6 Nordeste 21 Este 0 910.2 -0.3 49
2017-07-26 11:00:00 25.3 8 Nordeste 19 Nordeste 0 910.3 0.4 56
2017-07-26 10:00:00 23.7 5 Este 14 Este 0 910.4 0.9 63
2017-07-26 09:00:00 22.3 0 Calma 5 Este 0 910.5 1.3 75
2017-07-26 08:00:00 20.2 0 Calma 7 Norte 0 909.9 0.9 86
2017-07-26 07:00:00 19.7 0 Calma 5 Norte 0 909.5 0.2 89
2017-07-26 06:00:00 19.3 3 Este 10 Este 0 909.2 -0.6 94
2017-07-26 05:00:00 20.3 0 Calma 6 Noroeste 0 909 -1 83
2017-07-26 04:00:00 20.9 4 Norte 9 Noroeste 0 909.3 -0.5 83
2017-07-26 03:00:00 21.4 0 Calma 6 Este 0 909.8 0.6 82
2017-07-26 02:00:00 20.9 4 Nordeste 13 Nordeste 0 910 0.6 89
2017-07-26 01:00:00 20.8 6 Nordeste 14 Este 0 909.8 1.2 90
2017-07-26 00:00:00 21.7 5 Nordeste 10 Este 0 909.2 1.1 83
2017-07-25 23:00:00 22.6 4 Nordeste 15 Nordeste 0 909.4 1.6 77
2017-07-25 22:00:00 23.2 7 Nordeste 22 Nordeste 0 908.6 1.2 71
2017-07-25 21:00:00 25 9 Este 25 Este 0 908.1 0.6 60
2017-07-25 20:00:00 26 13 Este 32 Este 0 907.8 0.2 55
2017-07-25 19:00:00 28.4 16 Nordeste 37 Este 0 907.4 -0.7 48
2017-07-25 18:00:00 28.8 16 Nordeste 39 Este 0 907.5 -1.1 46
2017-07-25 17:00:00 28.5 14 Este 36 Este 0 907.6 -1.3 46
2017-07-25 16:00:00 30.3 14 Este 35 Este 0 908.1 -1.3 42
2017-07-25 15:00:00 30.5 13 Este 36 Este 0 908.6 -1 39
2017-07-25 14:00:00 30 16 Este 36 Este 0 908.9 -0.1 38
2017-07-25 13:00:00 29.9 14 Nordeste 33 Este 0 909.4 0 39
2017-07-25 12:00:00 28.4 15 Nordeste 31 Este 0 909.6 0 39
2017-07-25 11:00:00 30.2 9 Nordeste 21 Este 0 909 0 32
2017-07-25 10:00:00 30.7 5 Noroeste 13 Norte 0 909.4 -0.2 31
2017-07-25 09:00:00 27.7 5 Noroeste 11 Noroeste 0 909.6 0 35
2017-07-25 08:00:00 23.8 0 Calma 5 Norte 0 909 -0.6 42
2017-07-25 07:00:00 21.1 0 Calma 7 Norte 0 909.6 -0.6 48
2017-07-25 06:00:00 23 2 Nordeste 13 Norte 0 909.6 -1.1 36
2017-07-25 05:00:00 24.4 6 Norte 18 Noroeste 0 909.6 -1.4 35
2017-07-25 04:00:00 25.8 4 Noroeste 15 Norte 0 910.2 -1.1 34
2017-07-25 03:00:00 24.9 3 Noroeste 12 Sur 0 910.7 -0.8 34
2017-07-25 02:00:00 26.6 3 Noroeste 14 Noroeste 0 911 -0.7 33
2017-07-25 01:00:00 25.7 4 Oeste 13 Noroeste 0 911.3 0.2 33
2017-07-25 00:00:00 26.9 3 Norte 12 Norte 0 911.5 1 34
2017-07-24 23:00:00 26 2 Noroeste 8 Oeste 0 911.7 1.6 35
2017-07-24 22:00:00 27.3 0 Calma 17 Este 0 911.1 1.3 35
2017-07-24 21:00:00 28.8 8 Este 24 Este 0 910.5 0.8 30
2017-07-24 20:00:00 30.3 12 Este 25 Este 0 910.1 0.2 27
2017-07-24 19:00:00 32.2 14 Nordeste 29 Este 0 909.8 -0.4 26
2017-07-24 18:00:00 33.3 11 Nordeste 26 Nordeste 0 909.7 -0.9 24
2017-07-24 17:00:00 33.2 10 Este 28 Nordeste 0 909.9 -0.9 24
2017-07-24 16:00:00 33.9 12 Nordeste 30 Nordeste 0 910.2 -1.3 23
2017-07-24 15:00:00 33.8 14 Nordeste 32 Este 0 910.6 -1.2 23
2017-07-24 14:00:00 35.3 5 Norte 16 Noroeste 0 910.8 -1.2 21
2017-07-24 13:00:00 34.4 5 Norte 18 Noroeste 0 911.5 -0.7 21
2017-07-24 12:00:00 33.3 7 Noroeste 17 Noroeste 0 911.8 -0.8 24
2017-07-24 11:00:00 33 4 Norte 15 Norte 0 912 -0.8 27
2017-07-24 10:00:00 30.6 5 Norte 14 Noroeste 0 912.2 -0.2 28
2017-07-24 09:00:00 27.8 5 Noroeste 16 Noroeste 0 912.6 0.6 30
2017-07-24 08:00:00 24.1 4 Noroeste 18 Norte 0 912.8 0.3 31
2017-07-24 07:00:00 23.1 9 Sur 17 Sur 0 912.4 0.1 31
2017-07-24 06:00:00 23.5 3 Sur 13 Sur 0 912 -0.7 29
2017-07-24 05:00:00 23.8 0 Calma 18 Sur 0 912.5 -0.6 29
2017-07-24 04:00:00 24.5 2 Oeste 18 Sudoeste 0 912.3 -0.9 29
2017-07-24 03:00:00 25.1 5 Oeste 18 Noroeste 0 912.7 -0.4 30
2017-07-24 02:00:00 26.1 3 Oeste 16 Oeste 0 913.1 0.2 30
2017-07-24 01:00:00 26.1 2 Oeste 14 Sur 0 913.2 0.5 34
2017-07-24 00:00:00 23.7 0 Calma 5 Noroeste 0 913.1 1.1 46
2017-07-23 23:00:00 24.5 2 Noroeste 8 Noroeste 0 912.9 2.1 46
2017-07-23 22:00:00 25.3 4 Nordeste 14 Este 0 912.7 1.9 44
2017-07-23 21:00:00 26.4 7 Este 24 Este 0 912 1.1 42
2017-07-23 20:00:00 28.6 12 Este 27 Este 0 910.8 -0.1 40
2017-07-23 19:00:00 31.6 11 Nordeste 28 Nordeste 0 910.8 -0.7 35
2017-07-23 18:00:00 31.9 12 Este 26 Este 0 910.9 -1.2 33
2017-07-23 17:00:00 32.1 12 Este 25 Sudeste 0 910.9 -1.4 31
2017-07-23 16:00:00 33.3 10 Nordeste 31 Nordeste 0 911.5 -1.2 32
2017-07-23 15:00:00 31.7 13 Nordeste 26 Este 0 912.1 -0.4 34
2017-07-23 14:00:00 31.4 12 Nordeste 26 Este 0 912.3 0.1 33
2017-07-23 13:00:00 30.5 9 Nordeste 24 Este 0 912.7 0.2 34
2017-07-23 12:00:00 30.5 5 Nordeste 11 Nordeste 0 912.5 0.7 31
2017-07-23 11:00:00 29.5 3 Norte 12 Norte 0 912.2 1.7 33
2017-07-23 10:00:00 26.7 3 Norte 9 Sudoeste 0 912.5 1 37
2017-07-23 09:00:00 24.4 0 Calma 16 Noroeste 0 911.8 0.4 41
2017-07-23 08:00:00 23.2 3 Sudoeste 18 Sudoeste 0 910.5 -0.7 45
2017-07-23 07:00:00 21.9 2 Sur 13 Oeste 0 911.5 0.8 49
2017-07-23 06:00:00 22.3 0 Calma 11 Nordeste 0 911.4 -0.1 48
2017-07-23 05:00:00 22.1 6 Este 14 Nordeste 0 911.2 -0.9 49
2017-07-23 04:00:00 23.1 2 Noroeste 10 Norte 0 910.7 -1.4 48
2017-07-23 03:00:00 22.4 2 Norte 10 Norte 0 911.5 -0.8 48
2017-07-23 02:00:00 22.2 5 Noroeste 9 Norte 0 912.1 0.7 48
2017-07-23 01:00:00 21.9 5 Nordeste 19 Este 0 912.1 1.2 49
2017-07-23 00:00:00 22.9 8 Nordeste 17 Nordeste 0 912.3 2.5 47
2017-07-22 23:00:00 23.3 5 Norte 16 Nordeste 0 911.4 2.7 46
2017-07-22 22:00:00 23.8 9 Nordeste 25 Este 0 910.9 2.6 46
2017-07-22 21:00:00 25.4 13 Este 30 Este 0 909.8 1.8 44
2017-07-22 20:00:00 27.8 12 Nordeste 30 Este 0 908.7 0.7 39
2017-07-22 19:00:00 30.6 14 Nordeste 31 Nordeste 0 908.3 0 35
2017-07-22 18:00:00 31.6 12 Nordeste 31 Este 0 908 -0.3 34
2017-07-22 17:00:00 31.4 14 Nordeste 33 Nordeste 0 908 -0.6 34
2017-07-22 16:00:00 31.5 15 Nordeste 37 Este 0 908.3 -0.3 34
2017-07-22 15:00:00 31.2 16 Nordeste 40 Este 0 908.3 -0.8 35
2017-07-22 14:00:00 30.2 19 Nordeste 35 Nordeste 0 908.6 -0.4 34
2017-07-22 13:00:00 30.4 16 Este 29 Nordeste 0 908.6 -0.4 33
2017-07-22 12:00:00 29.1 9 Nordeste 19 Nordeste 0 909.1 0.3 35
2017-07-22 11:00:00 27.1 7 Nordeste 18 Este 0 909 0.5 36
2017-07-22 10:00:00 26.4 3 Norte 8 Noroeste 0 909 0.7 35
2017-07-22 09:00:00 23.1 4 Noroeste 13 Oeste 0 908.8 0.9 42
2017-07-22 08:00:00 20.1 5 Noroeste 15 Oeste 0 908.5 0.9 45
2017-07-22 07:00:00 19.4 5 Noroeste 14 Noroeste 0 908.3 0.8 46
2017-07-22 06:00:00 20.3 4 Noroeste 13 Noroeste 0 907.9 0.6 49
2017-07-22 05:00:00 20.8 5 Oeste 14 Oeste 0 907.6 0.1 51
2017-07-22 04:00:00 20.2 9 Noroeste 14 Noroeste 0 907.5 -1.1 52
2017-07-22 03:00:00 21.6 3 Oeste 7 Oeste 0 907.3 -1.1 53
2017-07-22 02:00:00 21.6 0 Calma 6 Este 0 907.5 -0.5 52
2017-07-22 01:00:00 22.3 3 Nordeste 8 Nordeste 0 908.6 1.5 49
2017-07-22 00:00:00 24.2 0 Calma 8 Norte 0 908.4 2 44
2017-07-21 23:00:00 25.1 0 Calma 8 Nordeste 0 908 2 42
2017-07-21 22:00:00 25.4 3 Nordeste 12 Nordeste 0 907.1 1.6 42
2017-07-21 21:00:00 26.6 5 Nordeste 22 Este 0 906.4 0.7 41
2017-07-21 20:00:00 27.4 12 Nordeste 29 Nordeste 0 906 0.6 38
2017-07-21 19:00:00 28.6 14 Este 29 Este 0 905.5 -0.1 36
2017-07-21 18:00:00 29 15 Nordeste 30 Este 0 905.7 -0.1 37
2017-07-21 17:00:00 29.2 14 Nordeste 32 Norte 0 905.4 -0.9 35
2017-07-21 16:00:00 30.7 9 Este 25 Nordeste 0 905.6 -1.1 32
2017-07-21 15:00:00 31.3 8 Nordeste 24 Este 0 905.8 -0.6 31
2017-07-21 14:00:00 30.3 8 Nordeste 23 Nordeste 0 906.3 -0.5 34
2017-07-21 13:00:00 28.6 12 Nordeste 24 Este 0 906.7 -0.2 35
2017-07-21 12:00:00 27.8 8 Nordeste 16 Nordeste 0 906.4 -0.3 33
2017-07-21 11:00:00 27 5 Nordeste 13 Nordeste 0 906.8 1.1 35
2017-07-21 10:00:00 25.8 3 Norte 11 Norte 0 906.9 0.6 41
2017-07-21 09:00:00 23 5 Noroeste 12 Noroeste 0 906.7 1.9 46
2017-07-21 08:00:00 21.2 4 Noroeste 10 Norte 0 905.7 0.3 51
2017-07-21 07:00:00 19.5 5 Noroeste 13 Noroeste 0 906.3 0.8 55
2017-07-21 06:00:00 20.5 3 Norte 13 Noroeste 0 904.8 -1.4 53
2017-07-21 05:00:00 20.5 4 Norte 12 Noroeste 0 905.4 -1.7 64
2017-07-21 04:00:00 19.9 4 Noroeste 9 Noroeste 0 905.5 -1.4 71
2017-07-21 03:00:00 20.9 2 Norte 11 Nordeste 0 906.2 -0.7 70
2017-07-21 02:00:00 21.1 5 Nordeste 12 Nordeste 0 907.1 0.5 69
2017-07-21 01:00:00 22.9 0 Calma 8 Norte 0 906.9 0.9 42
2017-07-21 00:00:00 24 2 Noroeste 6 Oeste 0 906.9 1.2 41
2017-07-20 23:00:00 24.9 2 Noroeste 15 Este 0 906.6 1.3 41
2017-07-20 22:00:00 25.2 8 Nordeste 24 Nordeste 0 906 1 42
2017-07-20 21:00:00 26.9 12 Este 24 Este 0 905.7 0.5 37
2017-07-20 20:00:00 28.7 14 Este 31 Este 0 905.3 0.1 30
2017-07-20 19:00:00 30.2 16 Nordeste 36 Este 0 905 -0.9 31
2017-07-20 18:00:00 30.6 18 Este 37 Nordeste 0 905.2 -1.1 32
2017-07-20 17:00:00 31.2 15 Este 32 Norte 0 905.2 -1.6 30
2017-07-20 16:00:00 32.4 12 Este 29 Este 0 905.9 -1.2 29
2017-07-20 15:00:00 32.3 12 Nordeste 30 Este 0 906.3 -1.5 29
2017-07-20 14:00:00 33.4 7 Nordeste 23 Este 0 906.8 -1.3 27
2017-07-20 13:00:00 31.7 3 Norte 13 Este 0 907.1 -1.3 29
2017-07-20 12:00:00 30.1 4 Norte 14 Noroeste 0 907.8 -0.6 33
2017-07-20 11:00:00 28.9 8 Noroeste 19 Noroeste 0 908.1 -0.3 35
2017-07-20 10:00:00 26.7 8 Norte 20 Norte 0 908.4 0.2 37
2017-07-20 09:00:00 26.3 8 Noroeste 17 Noroeste 0 908.4 0.5 38
2017-07-20 08:00:00 22.9 3 Noroeste 12 Noroeste 0 908.4 0.4 42
2017-07-20 07:00:00 22.4 3 Norte 20 Noroeste 0 908.2 0.1 41
2017-07-20 06:00:00 22 4 Noroeste 14 Noroeste 0 907.9 -0.4 41
2017-07-20 05:00:00 23.2 7 Noroeste 18 Noroeste 0 908 -0.7 38
2017-07-20 04:00:00 24.3 5 Noroeste 18 Norte 0 908.1 -0.9 38
2017-07-20 03:00:00 24.8 3 Noroeste 12 Noroeste 0 908.3 -0.7 37
2017-07-20 02:00:00 25.6 3 Norte 13 Noroeste 0 908.7 0 35
2017-07-20 01:00:00 26.1 4 Noroeste 15 Noroeste 0 909 1.1 34
2017-07-20 00:00:00 27.1 4 Norte 15 Oeste 0 909 1.7 32
2017-07-19 23:00:00 28.4 4 Norte 15 Noroeste 0 908.7 2 30
2017-07-19 22:00:00 29.7 4 Noroeste 19 Noroeste 0 907.9 1.6 27
2017-07-19 21:00:00 31.3 8 Noroeste 18 Norte 0 907.3 0.7 24
2017-07-19 20:00:00 32.8 8 Noroeste 18 Noroeste 0 906.7 0.4 22
2017-07-19 19:00:00 36.6 4 Norte 25 Este 0 906.3 -0.8 23
2017-07-19 18:00:00 33.7 8 Este 33 Este 0 906.6 -1.3 32
2017-07-19 17:00:00 33.8 13 Nordeste 27 Nordeste 0 906.3 -1.5 28
2017-07-19 16:00:00 35 4 Nordeste 25 Este 0 907.1 -1.6 29
2017-07-19 15:00:00 31.7 12 Este 31 Norte 0 907.9 -1.2 39
2017-07-19 14:00:00 30.6 12 Este 35 Norte 0 907.8 -1.5 42
2017-07-19 13:00:00 30.7 13 Este 35 Este 0 908.7 -1.1 38
2017-07-19 12:00:00 29.7 13 Este 27 Este 0 909.1 -0.3 34
2017-07-19 11:00:00 28 2 Nordeste 9 Este 0 909.3 -0.2 31
2017-07-19 10:00:00 27.6 3 Nordeste 11 Noroeste 0 909.8 1.8 35
2017-07-19 09:00:00 24.1 3 Norte 10 Noroeste 0 909.4 0.8 40
2017-07-19 08:00:00 23.1 0 Calma 10 Oeste 0 909.5 0.7 42
2017-07-19 07:00:00 21.9 3 Noroeste 8 Noroeste 0 908 -1.2 41
2017-07-19 06:00:00 22.5 4 Oeste 10 Norte 0 908.6 -1.6 42
2017-07-19 05:00:00 22.4 4 Noroeste 12 Noroeste 0 908.8 -1.6 43
2017-07-19 04:00:00 22.7 3 Noroeste 11 Este 0 909.2 -1.1 42
2017-07-19 03:00:00 23.3 6 Norte 19 Este 0 910.2 -0.1 42
2017-07-19 02:00:00 23.5 6 Nordeste 27 Nordeste 0 910.4 0.7 41
2017-07-19 01:00:00 24.4 15 Nordeste 30 Nordeste 0 910.3 1.3 42
2017-07-19 00:00:00 25.4 13 Nordeste 31 Este 0 910.3 1.8 42